Time;durP1;ratioP1;P1;durP2;ratioP2;P2;SDS_P1;SDS_P2;PMS_P1;PMS_P2;Temp;Humidity;BMP_temperature;BMP_pressure;BME280_temperature;BME280_humidity;BME280_pressure;Samples;Min_cycle;Max_cycle;Signal;HPM_P1;HPM_P2
2022/05/12 16:01:48;;;;;;;1.23;0.30;;;28.20;37.90;;;;;;5094755;27;20109;-50
2022/05/12 16:04:15;;;;;;;1.55;0.20;;;28.10;35.80;;;;;;5088276;28;20070;-45
2022/05/12 16:06:42;;;;;;;1.67;0.73;;;28.10;34.60;;;;;;5082932;28;20044;-46
2022/05/12 16:09:10;;;;;;;0.73;0.10;;;28.00;33.60;;;;;;5086464;28;20037;-45
2022/05/12 16:14:27;;;;;;;2.75;0.10;;;28.10;32.30;;;;;;5085704;28;20033;-49
2022/05/12 16:16:58;;;;;;;1.15;0.20;;;28.10;31.90;;;;;;5085700;28;20061;-50
2022/05/12 16:19:26;;;;;;;1.60;0.30;;;28.10;31.60;;;;;;5081900;28;20036;-52
2022/05/12 16:21:54;;;;;;;2.13;0.30;;;28.00;31.40;;;;;;5079346;28;20036;-48
2022/05/12 16:24:21;;;;;;;0.55;0.10;;;28.00;31.30;;;;;;5083203;28;20037;-53
2022/05/12 16:26:54;;;;;;;0.30;0.10;;;28.00;31.30;;;;;;5084898;28;20512;-53
2022/05/12 16:29:27;;;;;;;1.77;0.25;;;27.90;31.20;;;;;;5081272;28;20064;-54
2022/05/12 16:31:56;;;;;;;5.57;0.47;;;27.90;31.20;;;;;;5088780;28;20043;-52
2022/05/12 16:34:24;;;;;;;1.50;0.10;;;27.90;31.40;;;;;;5087105;28;20055;-49
2022/05/12 16:36:53;;;;;;;0.55;0.10;;;27.90;31.40;;;;;;5091176;28;20568;-53
2022/05/12 16:39:21;;;;;;;1.02;0.10;;;27.90;31.50;;;;;;5078803;28;20047;-50
2022/05/12 16:41:48;;;;;;;5.05;0.90;;;27.90;31.60;;;;;;5072643;28;20044;-52
2022/05/12 16:44:16;;;;;;;2.78;0.70;;;28.00;31.40;;;;;;5085667;28;20127;-52
2022/05/12 16:46:43;;;;;;;4.28;0.10;;;28.00;31.40;;;;;;5087837;28;20040;-53
2022/05/12 16:49:19;;;;;;;1.90;0.30;;;28.10;31.40;;;;;;5087726;28;20117;-55
2022/05/12 16:51:47;;;;;;;0.50;0.20;;;28.10;31.20;;;;;;5080071;28;20131;-52
2022/05/12 16:54:14;;;;;;;2.17;0.20;;;28.10;31.30;;;;;;5088920;28;20028;-53
2022/05/12 16:56:41;;;;;;;2.75;0.10;;;28.10;31.40;;;;;;5094635;28;20041;-52
2022/05/12 16:59:10;;;;;;;0.60;0.45;;;28.10;31.20;;;;;;5087521;28;20128;-53
2022/05/12 17:01:37;;;;;;;2.10;0.10;;;28.10;31.20;;;;;;5081511;28;20065;-59
2022/05/12 17:04:05;;;;;;;3.30;0.10;;;28.10;31.10;;;;;;5088804;28;20032;-55
2022/05/12 17:06:34;;;;;;;7.10;0.40;;;28.00;30.90;;;;;;5092350;28;20036;-58
2022/05/12 17:09:01;;;;;;;2.05;0.25;;;28.00;30.90;;;;;;5086286;28;20064;-53
2022/05/12 17:11:29;;;;;;;1.00;0.10;;;27.90;31.00;;;;;;5076071;28;20063;-51
2022/05/12 17:13:56;;;;;;;0.63;0.10;;;27.90;30.90;;;;;;5084520;28;20048;-51
2022/05/12 17:16:24;;;;;;;2.28;0.10;;;27.90;30.90;;;;;;5070312;28;20052;-54
2022/05/12 17:18:51;;;;;;;1.98;0.10;;;27.80;31.00;;;;;;5066997;28;20045;-55
2022/05/12 17:21:18;;;;;;;1.13;0.10;;;27.70;31.00;;;;;;5077114;28;20064;-51
2022/05/12 17:23:47;;;;;;;0.68;0.57;;;27.70;31.10;;;;;;5067470;28;20036;-54
2022/05/12 17:26:14;;;;;;;1.45;0.10;;;27.60;31.00;;;;;;5070779;28;20071;-51
2022/05/12 17:28:42;;;;;;;1.23;0.10;;;27.50;31.80;;;;;;5074887;28;20082;-53
2022/05/12 17:31:09;;;;;;;2.08;0.10;;;27.50;31.30;;;;;;5068154;28;20071;-57
2022/05/12 17:33:36;;;;;;;1.63;0.98;;;27.40;31.40;;;;;;5069736;28;20041;-52
2022/05/12 17:36:04;;;;;;;2.15;0.10;;;27.40;31.40;;;;;;5072025;28;20037;-56
2022/05/12 17:38:31;;;;;;;3.00;0.20;;;27.30;31.60;;;;;;5059724;28;20040;-56
2022/05/12 17:41:01;;;;;;;2.60;0.85;;;27.30;31.60;;;;;;5081761;28;20101;-55
2022/05/12 17:43:29;;;;;;;1.00;0.38;;;27.20;31.60;;;;;;5069781;28;20068;-54
2022/05/12 17:46:01;;;;;;;3.20;0.10;;;27.20;31.70;;;;;;5071793;28;20076;-53
2022/05/12 17:48:29;;;;;;;0.55;0.10;;;27.10;31.80;;;;;;5071137;28;20068;-51
2022/05/12 17:50:56;;;;;;;0.73;0.32;;;27.10;31.90;;;;;;5075003;28;20040;-55
2022/05/12 17:53:24;;;;;;;0.90;0.10;;;27.10;31.90;;;;;;5058682;28;20080;-52
2022/05/12 17:55:52;;;;;;;1.00;0.10;;;27.00;31.80;;;;;;5063089;28;20883;-50
2022/05/12 17:58:24;;;;;;;4.15;0.38;;;26.90;31.80;;;;;;5058218;28;20040;-55
2022/05/12 18:00:52;;;;;;;1.00;0.10;;;26.90;31.90;;;;;;5058376;28;20545;-55
2022/05/12 18:03:20;;;;;;;1.90;0.20;;;26.80;32.00;;;;;;5058514;28;20040;-53
2022/05/12 18:05:49;;;;;;;0.75;0.10;;;26.80;32.00;;;;;;5056748;28;20053;-55
2022/05/12 18:08:23;;;;;;;1.45;0.10;;;26.80;32.10;;;;;;5056470;28;20082;-56
2022/05/12 18:10:52;;;;;;;0.17;0.10;;;26.70;32.30;;;;;;5059799;28;20063;-55
2022/05/12 18:13:22;;;;;;;2.00;0.22;;;26.70;32.40;;;;;;5079191;28;20036;-54
2022/05/12 18:15:52;;;;;;;0.73;0.13;;;26.70;32.40;;;;;;5052017;28;20360;-55
2022/05/12 18:18:20;;;;;;;2.15;0.10;;;26.60;32.40;;;;;;5058915;28;20078;-54
2022/05/12 18:20:48;;;;;;;2.95;0.10;;;26.60;32.60;;;;;;5056861;28;20045;-54
2022/05/12 18:23:15;;;;;;;1.48;0.10;;;26.50;32.70;;;;;;5063788;28;20036;-56
2022/05/12 18:25:44;;;;;;;2.53;0.13;;;26.50;32.80;;;;;;5070993;28;20041;-55
2022/05/12 18:28:16;;;;;;;1.85;0.17;;;26.50;33.00;;;;;;5052366;28;20040;-55
2022/05/12 18:30:45;;;;;;;0.57;0.10;;;26.50;32.90;;;;;;5060631;28;20036;-55
2022/05/12 18:33:13;;;;;;;1.25;0.10;;;26.40;33.10;;;;;;5055345;28;20121;-56
2022/05/12 18:35:43;;;;;;;2.15;0.50;;;26.40;32.90;;;;;;5056451;28;20045;-53
2022/05/12 18:38:11;;;;;;;2.05;0.32;;;26.40;32.90;;;;;;5059508;28;20120;-52
2022/05/12 18:40:39;;;;;;;2.28;0.60;;;26.30;33.10;;;;;;5059889;28;20048;-53
2022/05/12 18:43:07;;;;;;;0.60;0.10;;;26.30;33.30;;;;;;5058089;28;20048;-55
2022/05/12 18:45:34;;;;;;;3.00;0.40;;;26.30;33.40;;;;;;5054571;28;20041;-53
2022/05/12 18:48:04;;;;;;;3.30;0.25;;;26.20;33.40;;;;;;5058020;28;20041;-54
2022/05/12 18:50:32;;;;;;;1.13;0.10;;;26.20;33.50;;;;;;5055617;28;20186;-53
2022/05/12 18:53:00;;;;;;;0.85;0.22;;;26.20;33.50;;;;;;5073416;28;20041;-55
2022/05/12 18:55:27;;;;;;;1.08;0.15;;;26.10;33.70;;;;;;5072765;28;20024;-52
2022/05/12 18:57:55;;;;;;;1.02;0.47;;;26.10;33.70;;;;;;5072163;28;20068;-55
2022/05/12 19:00:24;;;;;;;2.35;0.30;;;26.10;34.00;;;;;;5074142;28;20535;-54
2022/05/12 19:02:52;;;;;;;0.50;0.10;;;26.10;34.20;;;;;;5056566;28;20051;-53
2022/05/12 19:05:23;;;;;;;6.85;0.20;;;26.10;34.50;;;;;;5063736;28;20457;-51
2022/05/12 19:07:51;;;;;;;6.00;0.22;;;26.00;34.50;;;;;;5084190;28;20467;-52
2022/05/12 19:10:20;;;;;;;2.35;0.30;;;26.00;34.50;;;;;;5068598;28;20044;-50
2022/05/12 19:12:48;;;;;;;2.75;0.10;;;25.90;34.40;;;;;;5067424;28;20060;-55
2022/05/12 19:15:17;;;;;;;3.08;0.20;;;26.00;34.50;;;;;;5066209;28;20044;-53
2022/05/12 19:17:48;;;;;;;0.98;0.10;;;25.90;34.40;;;;;;5078375;28;20056;-54
2022/05/12 19:20:17;;;;;;;18.40;0.47;;;25.90;34.40;;;;;;5064082;28;20044;-50
2022/05/12 19:22:46;;;;;;;22.80;0.70;;;25.90;35.10;;;;;;5070726;28;20113;-52
2022/05/12 19:25:15;;;;;;;6.05;0.40;;;25.90;35.50;;;;;;5077595;28;20059;-52
2022/05/12 19:27:43;;;;;;;10.23;0.30;;;25.90;35.70;;;;;;5073524;28;20044;-51
2022/05/12 19:30:13;;;;;;;5.60;0.68;;;26.00;35.90;;;;;;5068468;28;20032;-48
2022/05/12 19:32:41;;;;;;;3.78;0.32;;;26.00;36.00;;;;;;5064535;28;20502;-49
2022/05/12 19:35:09;;;;;;;2.40;0.35;;;26.00;36.10;;;;;;5074708;28;20106;-49
2022/05/12 19:37:39;;;;;;;4.47;0.20;;;26.00;36.10;;;;;;5067383;28;20098;-50
2022/05/12 19:40:12;;;;;;;2.28;0.10;;;26.00;36.00;;;;;;5068283;28;20036;-50
2022/05/12 19:42:39;;;;;;;1.63;0.20;;;26.00;36.00;;;;;;5070796;28;20040;-53
2022/05/12 19:45:07;;;;;;;1.85;0.38;;;26.00;36.00;;;;;;5077373;28;20082;-51
2022/05/12 19:47:35;;;;;;;1.90;0.20;;;26.10;36.10;;;;;;5067811;28;20108;-50
2022/05/12 19:50:03;;;;;;;1.17;0.10;;;26.00;35.90;;;;;;5070935;28;20075;-53
2022/05/12 19:52:31;;;;;;;1.88;0.20;;;26.10;36.10;;;;;;5078232;28;20135;-51
2022/05/12 19:54:58;;;;;;;1.92;0.15;;;26.10;35.90;;;;;;5070781;28;20076;-52
2022/05/12 19:57:26;;;;;;;4.50;0.13;;;26.10;36.00;;;;;;5067607;28;20723;-50
2022/05/12 19:59:54;;;;;;;5.85;0.77;;;26.10;36.10;;;;;;5067900;28;20052;-53
2022/05/12 20:02:22;;;;;;;0.98;0.20;;;26.10;36.10;;;;;;5065485;28;20559;-53
2022/05/12 20:04:49;;;;;;;2.10;0.10;;;26.10;36.60;;;;;;5070968;28;21084;-51
2022/05/12 20:07:16;;;;;;;2.85;0.10;;;26.10;36.00;;;;;;5068496;28;20046;-53
2022/05/12 20:09:43;;;;;;;0.52;0.17;;;26.10;35.90;;;;;;5066286;28;20515;-50
2022/05/12 20:12:11;;;;;;;4.13;0.25;;;26.10;35.90;;;;;;5064081;28;20044;-51
2022/05/12 20:14:41;;;;;;;1.45;0.30;;;26.10;35.90;;;;;;5065187;28;20133;-49
2022/05/12 20:17:08;;;;;;;3.55;0.40;;;26.10;35.70;;;;;;5068810;28;20051;-52
2022/05/12 20:19:36;;;;;;;1.42;0.45;;;26.00;35.70;;;;;;5066725;28;20121;-50
2022/05/12 20:22:07;;;;;;;2.38;0.77;;;26.10;35.70;;;;;;5063589;28;20684;-49
2022/05/12 20:24:34;;;;;;;5.20;0.30;;;26.10;35.60;;;;;;5071500;28;20504;-51
2022/05/12 20:27:01;;;;;;;2.33;0.30;;;26.00;35.50;;;;;;5076415;28;20056;-51
2022/05/12 20:29:29;;;;;;;1.55;0.17;;;26.10;35.60;;;;;;5065235;28;20127;-51
2022/05/12 20:31:58;;;;;;;1.48;0.25;;;26.00;35.40;;;;;;5061542;28;20043;-47
2022/05/12 20:34:25;;;;;;;1.38;0.95;;;26.00;35.50;;;;;;5059718;28;20109;-50
2022/05/12 20:36:52;;;;;;;3.15;0.40;;;26.00;35.60;;;;;;5065334;28;20053;-48
2022/05/12 20:39:19;;;;;;;3.17;0.65;;;26.00;36.10;;;;;;5072943;28;20041;-50
2022/05/12 20:41:48;;;;;;;1.20;0.30;;;26.00;35.80;;;;;;5068023;28;20527;-53
2022/05/12 20:44:16;;;;;;;3.38;0.55;;;25.90;35.70;;;;;;5066471;28;20044;-54
2022/05/12 20:46:45;;;;;;;2.60;0.30;;;25.90;35.70;;;;;;5063620;28;20097;-53
2022/05/12 20:49:14;;;;;;;2.58;0.90;;;25.90;35.80;;;;;;5069058;28;20398;-51
2022/05/12 20:51:41;;;;;;;2.10;0.68;;;25.90;35.90;;;;;;5061697;28;20040;-50
2022/05/12 20:54:09;;;;;;;3.25;0.45;;;25.90;36.00;;;;;;5073800;28;20059;-52
2022/05/12 20:56:38;;;;;;;4.82;0.60;;;25.90;36.00;;;;;;5076445;28;20036;-50
2022/05/12 20:59:06;;;;;;;5.20;1.25;;;25.80;35.90;;;;;;5085510;28;20052;-50
2022/05/12 21:01:35;;;;;;;5.50;0.32;;;25.80;35.90;;;;;;5075886;28;20441;-51
2022/05/12 21:04:03;;;;;;;3.72;0.22;;;25.80;35.90;;;;;;5075014;28;20040;-54
2022/05/12 21:06:33;;;;;;;5.93;0.40;;;25.70;35.90;;;;;;5068291;28;20051;-53
2022/05/12 21:09:03;;;;;;;4.20;0.32;;;25.70;35.90;;;;;;5069038;28;20122;-50
2022/05/12 21:11:31;;;;;;;4.35;0.57;;;25.70;36.00;;;;;;5067435;28;20520;-51
2022/05/12 21:13:58;;;;;;;4.70;0.30;;;25.70;36.10;;;;;;5071300;28;20472;-51
2022/05/12 21:16:25;;;;;;;2.92;0.52;;;25.70;36.10;;;;;;5067367;28;20123;-54
2022/05/12 21:18:53;;;;;;;2.28;0.57;;;25.70;36.10;;;;;;5069261;28;20453;-48
2022/05/12 21:21:20;;;;;;;2.35;0.60;;;25.70;36.10;;;;;;5066604;28;20049;-52
2022/05/12 21:23:48;;;;;;;2.83;0.60;;;25.70;36.10;;;;;;5067248;28;20040;-51
2022/05/12 21:26:16;;;;;;;2.15;0.20;;;25.60;36.10;;;;;;5069146;28;20045;-50
2022/05/12 21:28:44;;;;;;;1.67;0.30;;;25.60;36.20;;;;;;5074957;28;20055;-52
2022/05/12 21:31:11;;;;;;;1.90;0.65;;;25.60;36.20;;;;;;5074006;28;20151;-51
2022/05/12 21:33:39;;;;;;;0.95;0.43;;;25.50;36.20;;;;;;5065718;28;20037;-50
2022/05/12 21:36:07;;;;;;;5.40;1.08;;;25.50;36.30;;;;;;5069000;28;20036;-50
2022/05/12 21:38:35;;;;;;;8.70;1.52;;;25.50;36.40;;;;;;5068670;28;20064;-55
2022/05/12 21:41:04;;;;;;;3.70;0.52;;;25.50;36.40;;;;;;5074496;28;20048;-49
2022/05/12 21:43:32;;;;;;;4.15;0.50;;;25.50;36.40;;;;;;5066408;28;20071;-50
2022/05/12 21:45:59;;;;;;;3.28;0.82;;;25.40;35.80;;;;;;5065434;28;20892;-47
2022/05/12 21:48:30;;;;;;;3.75;0.80;;;25.40;35.50;;;;;;5067761;28;20036;-49
2022/05/12 21:50:59;;;;;;;3.05;1.02;;;25.30;35.50;;;;;;5066034;28;20439;-47
2022/05/12 21:53:30;;;;;;;2.22;0.32;;;25.30;35.70;;;;;;5069773;28;20512;-46
2022/05/12 21:55:59;;;;;;;4.80;0.20;;;25.20;35.90;;;;;;5068412;28;20099;-48
2022/05/12 22:01:28;;;;;;;6.28;0.65;;;25.10;36.30;;;;;;5069141;28;20497;-47
2022/05/12 22:03:57;;;;;;;3.92;0.50;;;25.00;36.10;;;;;;5065075;28;20045;-51
2022/05/12 22:06:26;;;;;;;2.85;1.17;;;24.90;36.40;;;;;;5067045;28;20483;-50
2022/05/12 22:08:56;;;;;;;1.83;0.65;;;24.90;36.60;;;;;;5066264;28;20037;-48
2022/05/12 22:12:17;;;;;;;1.15;0.40;;;24.80;36.70;;;;;;5067424;28;20103;-46
2022/05/12 22:14:13;;;;;;;6.85;1.13;;;24.80;37.00;;;;;;5068595;28;20207;-51
2022/05/12 22:16:41;;;;;;;2.75;0.60;;;24.70;37.10;;;;;;5075703;28;20040;-50
2022/05/12 22:19:08;;;;;;;5.97;0.75;;;24.60;37.10;;;;;;5075929;28;20050;-51
2022/05/12 22:21:36;;;;;;;6.35;0.20;;;24.60;37.30;;;;;;5077154;28;20035;-54
2022/05/12 22:24:05;;;;;;;2.40;0.28;;;24.60;37.60;;;;;;5067211;28;20040;-50
2022/05/12 22:26:32;;;;;;;2.60;0.63;;;24.60;37.80;;;;;;5070994;28;20148;-47
2022/05/12 22:29:00;;;;;;;1.13;0.30;;;24.60;37.90;;;;;;5077022;28;20070;-53
2022/05/12 22:31:29;;;;;;;5.50;0.50;;;24.50;37.80;;;;;;5071418;28;20054;-48
2022/05/12 22:33:57;;;;;;;4.13;0.32;;;24.50;38.10;;;;;;5066135;28;20071;-46
2022/05/12 22:36:24;;;;;;;2.35;0.47;;;24.40;37.80;;;;;;5065920;28;20055;-49
2022/05/12 22:38:52;;;;;;;2.75;0.65;;;24.40;37.90;;;;;;5068869;28;20045;-51
2022/05/12 22:41:19;;;;;;;5.47;0.60;;;24.40;37.80;;;;;;5067519;28;20037;-49
2022/05/12 22:43:46;;;;;;;1.23;0.30;;;24.30;37.60;;;;;;5070030;28;20132;-51
2022/05/12 22:46:14;;;;;;;2.92;0.40;;;24.20;37.00;;;;;;5065418;28;20540;-49
2022/05/12 22:48:43;;;;;;;1.88;0.10;;;24.10;36.90;;;;;;5065904;28;20151;-47
2022/05/12 22:51:12;;;;;;;5.40;0.30;;;24.10;36.90;;;;;;5062995;28;20460;-49
2022/05/12 22:53:41;;;;;;;3.42;0.57;;;24.00;36.90;;;;;;5066974;28;20049;-48
2022/05/12 22:56:08;;;;;;;1.73;0.20;;;23.90;36.80;;;;;;5069266;28;20048;-45
2022/05/12 22:58:35;;;;;;;1.90;0.20;;;23.80;37.40;;;;;;5071380;28;20102;-49
2022/05/12 23:01:03;;;;;;;2.72;0.57;;;23.70;36.80;;;;;;5064065;28;20091;-50
2022/05/12 23:03:30;;;;;;;2.40;0.50;;;23.70;36.80;;;;;;5067076;28;20054;-49
2022/05/12 23:05:58;;;;;;;2.47;0.70;;;23.60;36.80;;;;;;5065515;28;20115;-48
2022/05/12 23:08:25;;;;;;;4.10;0.43;;;23.50;36.90;;;;;;5080436;28;20859;-50
2022/05/12 23:10:52;;;;;;;3.30;0.60;;;23.40;37.70;;;;;;5070625;28;20048;-47
2022/05/12 23:13:20;;;;;;;1.65;0.50;;;23.40;37.10;;;;;;5063252;28;20036;-47
2022/05/12 23:15:49;;;;;;;1.17;0.10;;;23.30;37.20;;;;;;5070765;28;20097;-50
2022/05/12 23:18:16;;;;;;;2.75;0.25;;;23.20;37.20;;;;;;5076854;28;20120;-52
2022/05/12 23:23:39;;;;;;;2.25;0.75;;;23.10;37.20;;;;;;4993694;28;20057;-48
2022/05/12 23:26:07;;;;;;;2.33;0.30;;;23.00;37.20;;;;;;4993926;28;20046;-47
2022/05/12 23:28:35;;;;;;;7.40;0.80;;;23.00;37.30;;;;;;4993795;28;20138;-45
2022/05/12 23:31:02;;;;;;;1.63;0.30;;;22.90;37.30;;;;;;4993114;28;20388;-44
2022/05/12 23:33:29;;;;;;;4.50;0.30;;;22.90;37.20;;;;;;4977482;28;20613;-48
2022/05/12 23:35:56;;;;;;;1.35;0.30;;;22.80;37.80;;;;;;4979345;28;20057;-45
2022/05/12 23:38:23;;;;;;;5.05;0.22;;;22.80;37.30;;;;;;4988577;28;20125;-49
2022/05/12 23:40:52;;;;;;;2.88;0.30;;;22.70;37.10;;;;;;4998609;28;20053;-48
2022/05/12 23:43:19;;;;;;;0.40;0.20;;;22.70;37.30;;;;;;4973433;28;20112;-45
2022/05/12 23:45:46;;;;;;;1.80;0.17;;;22.60;37.30;;;;;;4992180;28;20149;-43
2022/05/12 23:48:13;;;;;;;4.72;0.20;;;22.60;37.30;;;;;;4989017;28;20121;-50
2022/05/12 23:50:41;;;;;;;1.65;0.10;;;22.60;37.40;;;;;;4976384;28;20050;-48
2022/05/12 23:53:08;;;;;;;1.08;0.22;;;22.50;37.30;;;;;;4989663;28;20502;-52
2022/05/12 23:55:35;;;;;;;1.75;0.40;;;22.50;37.30;;;;;;4994123;28;20052;-48
2022/05/12 23:58:04;;;;;;;3.47;0.20;;;22.40;37.30;;;;;;4995481;28;20523;-48
